Time;durP1;ratioP1;P1;durP2;ratioP2;P2;SDS_P1;SDS_P2;PMS_P1;PMS_P2;Temp;Humidity;BMP_temperature;BMP_pressure;BME280_temperature;BME280_humidity;BME280_pressure;Samples;Min_cycle;Max_cycle;Signal;HPM_P1;HPM_P2
2022/03/21 00:00:27;;;;;;;;;;;0.20;99.90;;;;;;4194155;28;20192;-46
2022/03/21 00:02:29;;;;;;;;;;;0.20;99.90;;;;;;4195713;28;19924;-48
2022/03/21 00:04:32;;;;;;;;;;;0.30;99.90;;;;;;4195041;28;20449;-45
2022/03/21 00:06:33;;;;;;;;;;;0.50;99.90;;;;;;4194987;28;20006;-47
2022/03/21 00:08:36;;;;;;;;;;;0.60;99.90;;;;;;4194937;28;20300;-45
2022/03/21 00:10:38;;;;;;;;;;;0.60;99.90;;;;;;4194940;28;20356;-47
2022/03/21 00:12:40;;;;;;;;;;;0.50;99.90;;;;;;4194846;28;19932;-46
2022/03/21 00:14:42;;;;;;;;;;;0.40;99.90;;;;;;4193554;28;20232;-45
2022/03/21 00:16:44;;;;;;;;;;;0.50;99.90;;;;;;4194642;28;19931;-46
2022/03/21 00:18:46;;;;;;;;;;;0.60;99.90;;;;;;4194243;28;19955;-47
2022/03/21 00:20:49;;;;;;;;;;;0.70;99.90;;;;;;4195113;28;19978;-45
2022/03/21 00:22:51;;;;;;;;;;;0.80;99.90;;;;;;4194433;28;19928;-46
2022/03/21 00:24:53;;;;;;;;;;;0.70;99.90;;;;;;4194575;28;19928;-46
2022/03/21 00:26:56;;;;;;;;;;;0.60;99.90;;;;;;4194732;28;19928;-45
2022/03/21 00:28:58;;;;;;;;;;;0.60;99.90;;;;;;4194217;28;20031;-47
2022/03/21 00:31:00;;;;;;;;;;;0.60;99.90;;;;;;4194574;28;20265;-47
2022/03/21 00:33:02;;;;;;;;;;;0.70;99.90;;;;;;4194543;28;19924;-49
2022/03/21 00:35:05;;;;;;;;;;;0.70;99.90;;;;;;4194476;28;19928;-47
2022/03/21 00:37:09;;;;;;;;;;;0.80;99.90;;;;;;4194622;28;19932;-46
2022/03/21 00:39:10;;;;;;;;;;;0.70;99.90;;;;;;4194181;28;19925;-48
2022/03/21 00:41:12;;;;;;;;;;;0.70;99.90;;;;;;4194260;28;19924;-48
2022/03/21 00:43:21;;;;;;;;;;;0.60;99.90;;;;;;4194319;28;19935;-45
2022/03/21 00:45:27;;;;;;;;;;;0.60;99.90;;;;;;4193985;28;19935;-46
2022/03/21 00:47:29;;;;;;;;;;;0.50;99.90;;;;;;4194362;28;19929;-46
2022/03/21 00:49:31;;;;;;;;;;;0.70;99.90;;;;;;4194020;28;19925;-47
2022/03/21 00:51:33;;;;;;;;;;;0.80;99.90;;;;;;4194109;28;19971;-48
2022/03/21 00:53:35;;;;;;;;;;;1.00;99.90;;;;;;4194610;28;19935;-45
2022/03/21 00:55:37;;;;;;;;;;;1.30;99.90;;;;;;4194431;28;19935;-47
2022/03/21 00:57:45;;;;;;;;;;;1.30;99.90;;;;;;4193949;28;19936;-47
2022/03/21 00:59:47;;;;;;;;;;;1.20;99.90;;;;;;4194327;28;19929;-45
2022/03/21 01:01:49;;;;;;;;;;;1.10;99.90;;;;;;4194092;28;19924;-46
2022/03/21 01:03:51;;;;;;;;;;;1.50;99.90;;;;;;4192943;28;19928;-46
2022/03/21 01:05:53;;;;;;;;;;;1.30;99.90;;;;;;4193774;28;19929;-48
2022/03/21 01:07:56;;;;;;;;;;;1.40;99.90;;;;;;4194438;28;19936;-45
2022/03/21 01:09:58;;;;;;;;;;;1.60;99.90;;;;;;4193732;28;19932;-46
2022/03/21 01:12:03;;;;;;;;;;;1.80;99.90;;;;;;4192727;28;20031;-48
2022/03/21 01:14:05;;;;;;;;;;;1.90;99.90;;;;;;4193893;28;20006;-48
2022/03/21 01:16:07;;;;;;;;;;;1.40;99.90;;;;;;4193873;28;19970;-49
2022/03/21 01:18:09;;;;;;;;;;;1.20;99.90;;;;;;4185134;28;20450;-48
2022/03/21 01:20:12;;;;;;;;;;;1.10;99.90;;;;;;4192849;28;20303;-46
2022/03/21 01:22:14;;;;;;;;;;;0.90;99.90;;;;;;4193203;28;19931;-47
2022/03/21 01:24:16;;;;;;;;;;;1.00;99.90;;;;;;4192405;28;19935;-46
2022/03/21 01:26:18;;;;;;;;;;;1.00;99.90;;;;;;4190816;28;19978;-45
2022/03/21 01:28:19;;;;;;;;;;;0.90;99.90;;;;;;4192834;28;19962;-47
2022/03/21 01:30:21;;;;;;;;;;;0.80;99.90;;;;;;4192463;28;20380;-46
2022/03/21 01:32:23;;;;;;;;;;;0.70;99.90;;;;;;4192766;28;19925;-48
2022/03/21 01:34:25;;;;;;;;;;;0.60;99.90;;;;;;4192594;28;19925;-45
2022/03/21 01:36:27;;;;;;;;;;;0.60;99.90;;;;;;4191261;28;20377;-47
2022/03/21 01:38:29;;;;;;;;;;;0.70;99.90;;;;;;4193701;28;20216;-48
2022/03/21 01:40:31;;;;;;;;;;;0.80;99.90;;;;;;4193783;28;20253;-45
2022/03/21 01:42:33;;;;;;;;;;;0.70;99.90;;;;;;4193399;28;19924;-48
2022/03/21 01:44:35;;;;;;;;;;;0.70;99.90;;;;;;4192924;28;19928;-45
2022/03/21 01:46:38;;;;;;;;;;;0.70;99.90;;;;;;4193713;28;19929;-47
2022/03/21 01:48:40;;;;;;;;;;;0.60;99.90;;;;;;4193106;28;19933;-49
2022/03/21 01:50:42;;;;;;;;;;;0.50;99.90;;;;;;4193775;28;20197;-48
2022/03/21 01:52:44;;;;;;;;;;;0.60;99.90;;;;;;4193073;28;20352;-47
2022/03/21 01:57:07;;;;;;;;;;;0.90;99.90;;;;;;4193731;28;19928;-46
2022/03/21 01:59:09;;;;;;;;;;;0.90;99.90;;;;;;4192568;28;19925;-48
2022/03/21 02:01:11;;;;;;;;;;;0.90;99.90;;;;;;4193963;28;19925;-46
2022/03/21 02:03:14;;;;;;;;;;;1.00;99.90;;;;;;4193529;28;20011;-45
2022/03/21 02:05:16;;;;;;;;;;;0.90;99.90;;;;;;4193486;28;19929;-46
2022/03/21 02:07:18;;;;;;;;;;;0.90;99.90;;;;;;4193501;28;19935;-45
2022/03/21 02:09:20;;;;;;;;;;;0.90;99.90;;;;;;4193621;28;19935;-46
2022/03/21 02:11:23;;;;;;;;;;;0.90;99.90;;;;;;4193498;28;19924;-48
2022/03/21 02:13:25;;;;;;;;;;;0.70;99.90;;;;;;4193527;28;19928;-47
2022/03/21 02:15:27;;;;;;;;;;;0.60;99.90;;;;;;4193337;28;19928;-46
2022/03/21 02:17:29;;;;;;;;;;;0.60;99.90;;;;;;4193260;28;20219;-48
2022/03/21 02:19:32;;;;;;;;;;;0.50;99.90;;;;;;4193431;28;19924;-45
2022/03/21 02:21:40;;;;;;;;;;;0.50;99.90;;;;;;4193230;28;19924;-47
2022/03/21 02:23:46;;;;;;;;;;;0.40;99.90;;;;;;4193177;28;20006;-47
2022/03/21 02:25:48;;;;;;;;;;;0.30;99.90;;;;;;4193196;28;19962;-45
2022/03/21 02:27:51;;;;;;;;;;;0.30;99.90;;;;;;4193417;28;19928;-49
2022/03/21 02:29:55;;;;;;;;;;;0.40;99.90;;;;;;4191710;28;19936;-46
2022/03/21 02:31:57;;;;;;;;;;;0.40;99.90;;;;;;4194848;28;19928;-46
2022/03/21 02:33:59;;;;;;;;;;;0.40;99.90;;;;;;4196075;28;20019;-46
2022/03/21 02:36:01;;;;;;;;;;;0.40;99.90;;;;;;4195090;28;20396;-45
2022/03/21 02:38:05;;;;;;;;;;;0.40;99.90;;;;;;4196494;28;19997;-48
2022/03/21 02:40:08;;;;;;;;;;;0.40;99.90;;;;;;4196072;28;20381;-49
2022/03/21 02:42:11;;;;;;;;;;;0.40;99.90;;;;;;4196174;28;20015;-49
2022/03/21 02:44:18;;;;;;;;;;;0.30;99.90;;;;;;4193198;28;20043;-48
2022/03/21 02:46:20;;;;;;;;;;;0.20;99.90;;;;;;4196290;28;19967;-46
2022/03/21 02:48:22;;;;;;;;;;;0.20;99.90;;;;;;4196196;28;19929;-47
2022/03/21 02:50:27;;;;;;;;;;;0.30;99.90;;;;;;4196824;28;19954;-50
2022/03/21 02:52:29;;;;;;;;;;;0.30;99.90;;;;;;4196510;28;19954;-48
2022/03/21 02:54:32;;;;;;;;;;;0.20;99.90;;;;;;4195728;28;20254;-46
2022/03/21 02:56:37;;;;;;;;;;;0.20;99.90;;;;;;4195879;28;19925;-47
2022/03/21 02:58:48;;;;;;;;;;;0.20;99.90;;;;;;4184747;28;19937;-47
2022/03/21 03:00:50;;;;;;;;;;;0.20;99.90;;;;;;4195868;28;19928;-49
2022/03/21 03:02:52;;;;;;;;;;;0.20;99.90;;;;;;4195974;28;19963;-46
2022/03/21 03:04:54;;;;;;;;;;;0.20;99.90;;;;;;4195978;28;20032;-47
2022/03/21 03:06:56;;;;;;;;;;;0.20;99.90;;;;;;4196183;28;20454;-48
2022/03/21 03:08:58;;;;;;;;;;;0.20;99.90;;;;;;4195830;28;20053;-47
2022/03/21 03:11:00;;;;;;;;;;;0.30;99.90;;;;;;4194307;28;19931;-48
2022/03/21 03:13:02;;;;;;;;;;;0.20;99.90;;;;;;4196010;28;19968;-47
2022/03/21 03:15:04;;;;;;;;;;;0.20;99.90;;;;;;4195094;28;19994;-47
2022/03/21 03:17:06;;;;;;;;;;;0.20;99.90;;;;;;4195619;28;20297;-47
2022/03/21 03:19:08;;;;;;;;;;;0.20;99.90;;;;;;4194851;28;20288;-45
2022/03/21 03:21:10;;;;;;;;;;;0.20;99.90;;;;;;4195531;28;19924;-47
2022/03/21 03:23:12;;;;;;;;;;;0.10;99.90;;;;;;4195706;28;19986;-45
2022/03/21 03:25:14;;;;;;;;;;;0.10;99.90;;;;;;4195468;28;19925;-47
2022/03/21 03:27:16;;;;;;;;;;;0.20;99.90;;;;;;4195719;28;19924;-46
2022/03/21 03:29:18;;;;;;;;;;;0.20;99.90;;;;;;4195727;28;19928;-47
2022/03/21 03:31:20;;;;;;;;;;;0.30;99.90;;;;;;4195443;28;19924;-48
2022/03/21 03:33:23;;;;;;;;;;;0.20;99.90;;;;;;4195419;28;19924;-49
2022/03/21 03:35:25;;;;;;;;;;;0.20;99.90;;;;;;4195976;28;19924;-48
2022/03/21 03:37:27;;;;;;;;;;;0.10;99.90;;;;;;4195761;28;19968;-46
2022/03/21 03:39:29;;;;;;;;;;;0.10;99.90;;;;;;4195495;28;19933;-46
2022/03/21 03:41:30;;;;;;;;;;;0.10;99.90;;;;;;4195445;28;19947;-45
2022/03/21 03:43:32;;;;;;;;;;;0.10;99.90;;;;;;4194673;28;19963;-48
2022/03/21 03:45:35;;;;;;;;;;;0.10;99.90;;;;;;4195105;28;19928;-47
2022/03/21 03:47:36;;;;;;;;;;;0.10;99.90;;;;;;4195085;28;19925;-49
2022/03/21 03:49:38;;;;;;;;;;;0.20;99.90;;;;;;4194937;28;19929;-49
2022/03/21 03:51:40;;;;;;;;;;;0.10;99.90;;;;;;4193764;28;19924;-47
2022/03/21 03:53:42;;;;;;;;;;;0.10;99.90;;;;;;4195044;28;20429;-49
2022/03/21 03:55:44;;;;;;;;;;;0.00;99.90;;;;;;4195203;28;19932;-49
2022/03/21 03:57:47;;;;;;;;;;;0.00;99.90;;;;;;4195213;28;20365;-45
2022/03/21 03:59:49;;;;;;;;;;;0.00;99.90;;;;;;4195233;28;19929;-45
2022/03/21 04:01:51;;;;;;;;;;;-0.10;99.90;;;;;;4193865;28;19936;-46
2022/03/21 04:03:53;;;;;;;;;;;-0.10;99.90;;;;;;4194926;28;20026;-47
2022/03/21 04:05:55;;;;;;;;;;;-0.10;99.90;;;;;;4195000;28;19924;-45
2022/03/21 04:07:56;;;;;;;;;;;-0.10;99.90;;;;;;4195040;28;19943;-45
2022/03/21 04:09:58;;;;;;;;;;;-0.10;99.90;;;;;;4195026;28;19932;-48
2022/03/21 04:12:03;;;;;;;;;;;-0.10;99.90;;;;;;4194758;28;19924;-45
2022/03/21 04:14:05;;;;;;;;;;;-0.20;99.90;;;;;;4194702;28;19974;-45
2022/03/21 04:16:10;;;;;;;;;;;-0.30;99.90;;;;;;4193626;28;20251;-46
2022/03/21 04:18:13;;;;;;;;;;;-0.50;99.90;;;;;;4193905;28;20402;-46
2022/03/21 04:20:15;;;;;;;;;;;-0.50;99.90;;;;;;4194854;28;20216;-45
2022/03/21 04:22:17;;;;;;;;;;;-0.30;99.90;;;;;;4194464;28;19924;-45
2022/03/21 04:24:18;;;;;;;;;;;-0.20;99.90;;;;;;4194603;28;20203;-46
2022/03/21 04:26:20;;;;;;;;;;;-0.20;99.90;;;;;;4210405;28;20415;-45
2022/03/21 04:28:22;;;;;;;;;;;-0.10;99.90;;;;;;4185356;28;20471;-45
2022/03/21 04:30:24;;;;;;;;;;;-0.20;99.90;;;;;;4193395;28;20305;-47
2022/03/21 04:32:26;;;;;;;;;;;-0.10;99.90;;;;;;4193281;28;19960;-45
2022/03/21 04:34:28;;;;;;;;;;;0.00;99.90;;;;;;4194484;28;19933;-46
2022/03/21 04:36:31;;;;;;;;;;;0.10;99.90;;;;;;4194590;28;19959;-46
2022/03/21 04:38:32;;;;;;;;;;;0.30;99.90;;;;;;4194328;28;19933;-46
2022/03/21 04:40:34;;;;;;;;;;;0.30;99.90;;;;;;4194650;28;19940;-47
2022/03/21 04:42:37;;;;;;;;;;;0.30;99.90;;;;;;4194176;28;20412;-47
2022/03/21 04:44:39;;;;;;;;;;;0.40;99.90;;;;;;4194324;28;19983;-48
2022/03/21 04:46:41;;;;;;;;;;;0.40;99.90;;;;;;4194352;28;20339;-50
2022/03/21 04:48:43;;;;;;;;;;;0.40;99.90;;;;;;4193800;28;19924;-45
2022/03/21 04:50:45;;;;;;;;;;;0.20;99.90;;;;;;4194379;28;19928;-45
2022/03/21 04:52:47;;;;;;;;;;;-0.20;99.90;;;;;;4192801;28;20412;-47
2022/03/21 04:54:49;;;;;;;;;;;-0.60;99.90;;;;;;4193335;28;19960;-47
2022/03/21 04:56:51;;;;;;;;;;;-0.60;99.90;;;;;;4194095;28;19972;-45
2022/03/21 04:58:53;;;;;;;;;;;-0.60;99.90;;;;;;4194142;28;19959;-49
2022/03/21 05:00:55;;;;;;;;;;;-0.70;99.90;;;;;;4194241;28;19929;-47
2022/03/21 05:02:57;;;;;;;;;;;-0.80;99.90;;;;;;4193768;28;19981;-47
2022/03/21 05:04:59;;;;;;;;;;;-0.90;99.90;;;;;;4193908;28;20315;-46
2022/03/21 05:07:01;;;;;;;;;;;-1.00;99.90;;;;;;4193875;28;20296;-49
2022/03/21 05:09:03;;;;;;;;;;;-1.10;99.90;;;;;;4193695;28;20454;-45
2022/03/21 05:11:05;;;;;;;;;;;-1.10;99.90;;;;;;4195290;28;20342;-46
2022/03/21 05:13:07;;;;;;;;;;;-1.10;99.90;;;;;;4193652;28;19983;-45
2022/03/21 05:15:10;;;;;;;;;;;-1.00;99.90;;;;;;4194158;28;19928;-47
2022/03/21 05:17:12;;;;;;;;;;;-0.80;99.90;;;;;;4191825;28;19936;-44
2022/03/21 05:19:15;;;;;;;;;;;-0.70;99.90;;;;;;4192759;28;19978;-45
2022/03/21 05:21:17;;;;;;;;;;;-0.70;99.90;;;;;;4192464;28;19931;-46
2022/03/21 05:32:40;;;;;;;;;;;-0.50;99.90;;;;;;4193053;28;19929;-46
2022/03/21 05:37:03;;;;;;;;;;;-0.50;99.90;;;;;;4194784;28;19928;-47
2022/03/21 05:39:05;;;;;;;;;;;-0.50;99.90;;;;;;4193354;28;20371;-48
2022/03/21 05:41:07;;;;;;;;;;;-0.50;99.90;;;;;;4193169;28;19935;-45
2022/03/21 05:43:08;;;;;;;;;;;-0.50;99.90;;;;;;4193293;28;19928;-45
2022/03/21 05:45:11;;;;;;;;;;;-0.50;99.90;;;;;;4193013;28;20231;-45
2022/03/21 05:47:12;;;;;;;;;;;-0.50;99.90;;;;;;4193141;28;19935;-46
2022/03/21 05:49:14;;;;;;;;;;;-0.60;99.90;;;;;;4184563;28;19928;-46
2022/03/21 05:51:17;;;;;;;;;;;-0.60;99.90;;;;;;4193378;28;19970;-45
2022/03/21 05:53:19;;;;;;;;;;;-0.60;99.90;;;;;;4193629;28;19989;-45
2022/03/21 05:55:21;;;;;;;;;;;-0.60;99.90;;;;;;4193217;28;19947;-46
2022/03/21 05:57:23;;;;;;;;;;;-0.50;99.90;;;;;;4193190;28;19929;-45
2022/03/21 06:01:45;;;;;;;;;;;-0.30;99.90;;;;;;4193209;28;19925;-48
2022/03/21 06:03:48;;;;;;;;;;;-0.30;99.90;;;;;;4194068;28;20035;-45
2022/03/21 06:05:51;;;;;;;;;;;-0.30;99.90;;;;;;4194181;28;20510;-48
2022/03/21 06:07:54;;;;;;;;;;;-0.20;99.90;;;;;;4196879;28;19960;-48
2022/03/21 06:09:56;;;;;;;;;;;-0.10;99.90;;;;;;4196358;28;20316;-48
2022/03/21 06:11:58;;;;;;;;;;;-0.10;99.90;;;;;;4196476;28;19935;-47
2022/03/21 06:14:00;;;;;;;;;;;-0.10;99.90;;;;;;4195656;28;19932;-47
2022/03/21 06:16:04;;;;;;;;;;;-0.10;99.90;;;;;;4196395;28;19931;-47
2022/03/21 06:18:10;;;;;;;;;;;-0.10;99.90;;;;;;4196434;28;19994;-49
2022/03/21 06:20:13;;;;;;;;;;;-0.10;99.90;;;;;;4195522;28;19924;-47
2022/03/21 06:22:15;;;;;;;;;;;-0.10;99.90;;;;;;4196766;28;19938;-46
2022/03/21 06:24:18;;;;;;;;;;;0.00;99.90;;;;;;4196658;28;19936;-49
2022/03/21 06:26:20;;;;;;;;;;;0.10;99.90;;;;;;4196345;28;20457;-47
2022/03/21 06:28:22;;;;;;;;;;;0.20;99.90;;;;;;4194939;28;19951;-47
2022/03/21 06:30:24;;;;;;;;;;;0.40;99.90;;;;;;4195330;28;20388;-48
2022/03/21 06:32:26;;;;;;;;;;;0.70;99.90;;;;;;4196394;28;19974;-46
2022/03/21 06:34:28;;;;;;;;;;;0.80;99.90;;;;;;4195194;28;19932;-49
2022/03/21 06:36:30;;;;;;;;;;;0.80;99.90;;;;;;4196374;28;19932;-48
2022/03/21 06:38:32;;;;;;;;;;;0.80;99.90;;;;;;4196432;28;19936;-48
2022/03/21 06:40:34;;;;;;;;;;;0.80;99.90;;;;;;4196267;28;20324;-46
2022/03/21 06:42:36;;;;;;;;;;;0.70;99.90;;;;;;4196077;28;20343;-49
2022/03/21 06:44:38;;;;;;;;;;;0.50;99.90;;;;;;4196430;28;19934;-49
2022/03/21 06:46:40;;;;;;;;;;;0.50;99.90;;;;;;4181054;28;19940;-48
2022/03/21 06:48:41;;;;;;;;;;;0.60;99.90;;;;;;4195580;28;19948;-48
2022/03/21 06:50:46;;;;;;;;;;;0.70;99.90;;;;;;4191157;28;19928;-49
2022/03/21 06:52:48;;;;;;;;;;;0.80;99.90;;;;;;4196214;28;19924;-49
2022/03/21 06:54:49;;;;;;;;;;;1.10;99.90;;;;;;4195041;28;20477;-46
2022/03/21 06:56:51;;;;;;;;;;;1.20;99.90;;;;;;4195059;28;19932;-48
2022/03/21 06:58:53;;;;;;;;;;;1.20;99.90;;;;;;4194728;28;20281;-46
2022/03/21 07:00:55;;;;;;;;;;;1.30;99.90;;;;;;4194128;28;19932;-47
2022/03/21 07:02:57;;;;;;;;;;;1.50;99.90;;;;;;4194827;28;19925;-48
2022/03/21 07:04:59;;;;;;;;;;;1.70;99.90;;;;;;4194308;28;20547;-46
2022/03/21 07:07:01;;;;;;;;;;;2.00;99.90;;;;;;4194463;28;19925;-48
2022/03/21 07:09:03;;;;;;;;;;;2.10;99.90;;;;;;4194552;28;19928;-50
2022/03/21 07:11:05;;;;;;;;;;;2.30;99.90;;;;;;4194289;28;19937;-46
2022/03/21 07:13:07;;;;;;;;;;;2.40;99.90;;;;;;4195177;28;19928;-48
2022/03/21 07:15:09;;;;;;;;;;;2.50;99.90;;;;;;4195466;28;20279;-48
2022/03/21 07:17:12;;;;;;;;;;;2.40;99.90;;;;;;4194586;28;19985;-47
2022/03/21 07:19:13;;;;;;;;;;;2.50;99.90;;;;;;4195292;28;19928;-47
2022/03/21 07:21:16;;;;;;;;;;;2.80;99.90;;;;;;4195551;28;19970;-47
2022/03/21 07:23:18;;;;;;;;;;;3.10;99.90;;;;;;4195504;28;19935;-45
2022/03/21 07:25:21;;;;;;;;;;;3.10;99.90;;;;;;4195560;28;19986;-48
2022/03/21 07:27:22;;;;;;;;;;;3.00;99.90;;;;;;4195435;28;19928;-48
2022/03/21 07:29:25;;;;;;;;;;;3.10;99.90;;;;;;4185422;28;19924;-48
2022/03/21 07:31:26;;;;;;;;;;;3.10;99.90;;;;;;4195158;28;20043;-49
2022/03/21 07:33:28;;;;;;;;;;;3.20;99.90;;;;;;4188556;28;20376;-46
2022/03/21 07:35:30;;;;;;;;;;;3.80;99.90;;;;;;4186305;28;19932;-47
2022/03/21 07:37:46;;;;;;;;;;;4.20;99.90;;;;;;4195447;28;20343;-47
2022/03/21 07:39:48;;;;;;;;;;;4.40;99.90;;;;;;4195269;28;20385;-51
2022/03/21 07:41:51;;;;;;;;;;;4.50;99.90;;;;;;4195259;28;19971;-47
2022/03/21 07:43:56;;;;;;;;;;;4.50;99.90;;;;;;4194163;28;19931;-46
2022/03/21 07:48:19;;;;;;;;;;;4.60;99.90;;;;;;4194240;28;19924;-49
2022/03/21 07:50:23;;;;;;;;;;;4.70;99.90;;;;;;4194731;28;20269;-50
2022/03/21 07:52:25;;;;;;;;;;;5.00;99.90;;;;;;4195040;28;20024;-47
2022/03/21 07:54:27;;;;;;;;;;;5.20;99.90;;;;;;4195325;28;19978;-47
2022/03/21 07:56:29;;;;;;;;;;;5.50;99.90;;;;;;4194865;28;20485;-47
2022/03/21 07:58:31;;;;;;;;;;;5.80;99.90;;;;;;4195405;28;19932;-48
2022/03/21 08:00:33;;;;;;;;;;;5.80;99.90;;;;;;4195192;28;19974;-50
2022/03/21 08:02:36;;;;;;;;;;;5.90;99.90;;;;;;4194665;28;19925;-50
2022/03/21 08:04:38;;;;;;;;;;;5.90;99.90;;;;;;4195162;28;20239;-49
2022/03/21 08:06:40;;;;;;;;;;;5.90;99.90;;;;;;4194685;28;19974;-47
2022/03/21 08:08:42;;;;;;;;;;;5.90;99.90;;;;;;4195043;28;19928;-50
2022/03/21 08:10:43;;;;;;;;;;;6.20;99.90;;;;;;4194681;28;19935;-50
2022/03/21 08:12:47;;;;;;;;;;;6.40;99.90;;;;;;4194661;28;19929;-48
2022/03/21 08:14:49;;;;;;;;;;;6.50;99.90;;;;;;4195023;28;19971;-46
2022/03/21 08:16:51;;;;;;;;;;;6.60;99.90;;;;;;4194546;28;19932;-47
2022/03/21 08:18:53;;;;;;;;;;;6.70;99.90;;;;;;4194111;28;19986;-47
2022/03/21 08:20:55;;;;;;;;;;;6.80;99.90;;;;;;4194578;28;20230;-46
2022/03/21 08:22:57;;;;;;;;;;;7.00;99.90;;;;;;4178232;28;19964;-47
2022/03/21 08:24:58;;;;;;;;;;;7.20;99.90;;;;;;4193926;28;19928;-46
2022/03/21 08:27:01;;;;;;;;;;;7.50;99.40;;;;;;4194304;28;19998;-47
2022/03/21 08:29:03;;;;;;;;;;;7.60;98.50;;;;;;4193611;28;19957;-47
2022/03/21 08:31:05;;;;;;;;;;;7.70;96.90;;;;;;4194270;28;20396;-49
2022/03/21 08:33:08;;;;;;;;;;;7.70;96.30;;;;;;4194230;28;19925;-47
2022/03/21 08:35:10;;;;;;;;;;;7.80;96.20;;;;;;4194886;28;19924;-47
2022/03/21 08:37:12;;;;;;;;;;;7.80;95.70;;;;;;4194286;28;19959;-47
2022/03/21 08:39:14;;;;;;;;;;;8.10;95.40;;;;;;4194295;28;19931;-48
2022/03/21 08:41:16;;;;;;;;;;;8.10;94.70;;;;;;4194424;28;19978;-47
2022/03/21 08:43:18;;;;;;;;;;;8.40;93.50;;;;;;4194205;28;19975;-48
2022/03/21 08:45:21;;;;;;;;;;;8.70;91.40;;;;;;4194448;28;19928;-47
2022/03/21 08:47:26;;;;;;;;;;;8.70;91.00;;;;;;4194063;28;20315;-47
2022/03/21 08:49:28;;;;;;;;;;;8.60;92.00;;;;;;4193944;28;20343;-49
2022/03/21 08:51:33;;;;;;;;;;;8.70;92.00;;;;;;4193946;28;20048;-48
2022/03/21 08:53:35;;;;;;;;;;;8.90;92.50;;;;;;4194387;28;19928;-49
2022/03/21 08:55:37;;;;;;;;;;;8.90;90.40;;;;;;4194058;28;19932;-47
2022/03/21 08:57:39;;;;;;;;;;;9.20;92.00;;;;;;4193894;28;20382;-49
2022/03/21 08:59:41;;;;;;;;;;;9.20;89.10;;;;;;4194034;28;20273;-46
2022/03/21 09:01:42;;;;;;;;;;;9.20;90.30;;;;;;4193855;28;19925;-48
2022/03/21 09:03:44;;;;;;;;;;;9.20;86.40;;;;;;4193989;28;19924;-47
2022/03/21 09:05:51;;;;;;;;;;;9.40;90.40;;;;;;4192470;28;20359;-48
2022/03/21 09:07:53;;;;;;;;;;;9.70;89.50;;;;;;4193837;28;19963;-48
2022/03/21 09:09:55;;;;;;;;;;;10.00;87.10;;;;;;4193931;28;19936;-48
2022/03/21 09:11:57;;;;;;;;;;;9.90;86.90;;;;;;4193520;28;19932;-48
2022/03/21 09:13:58;;;;;;;;;;;9.80;87.40;;;;;;4194067;28;19924;-49
2022/03/21 09:16:00;;;;;;;;;;;9.90;87.90;;;;;;4193627;28;19928;-47
2022/03/21 09:18:02;;;;;;;;;;;10.10;89.10;;;;;;4193313;28;20377;-48
2022/03/21 09:20:05;;;;;;;;;;;10.20;88.40;;;;;;4193655;28;20446;-48
2022/03/21 09:22:07;;;;;;;;;;;10.20;85.60;;;;;;4193576;28;19982;-49
2022/03/21 09:24:10;;;;;;;;;;;10.00;81.50;;;;;;4194000;28;19990;-48
2022/03/21 09:26:12;;;;;;;;;;;9.90;84.00;;;;;;4193629;28;19989;-47
2022/03/21 09:28:14;;;;;;;;;;;10.20;82.60;;;;;;4193891;28;19967;-47
2022/03/21 09:30:16;;;;;;;;;;;10.30;81.10;;;;;;4193603;28;19929;-49
2022/03/21 09:32:18;;;;;;;;;;;10.30;80.90;;;;;;4193586;28;19939;-50
2022/03/21 09:34:20;;;;;;;;;;;10.40;79.50;;;;;;4193848;28;19933;-49
2022/03/21 09:36:22;;;;;;;;;;;9.90;78.10;;;;;;4192404;28;20167;-49
2022/03/21 09:38:24;;;;;;;;;;;9.70;79.50;;;;;;4193895;28;19925;-51
2022/03/21 09:40:28;;;;;;;;;;;10.10;81.70;;;;;;4191908;28;19924;-47
2022/03/21 09:42:29;;;;;;;;;;;10.10;80.00;;;;;;4194004;28;19928;-48
2022/03/21 09:44:31;;;;;;;;;;;10.50;81.80;;;;;;4193334;28;19928;-48
2022/03/21 09:46:33;;;;;;;;;;;10.70;80.20;;;;;;4193497;28;19931;-47
2022/03/21 09:48:35;;;;;;;;;;;10.90;79.40;;;;;;4193337;28;19925;-49
2022/03/21 09:50:42;;;;;;;;;;;11.20;78.80;;;;;;4193426;28;19967;-50
2022/03/21 09:52:44;;;;;;;;;;;11.60;79.90;;;;;;4177222;28;20458;-49
2022/03/21 09:54:46;;;;;;;;;;;11.60;77.40;;;;;;4192998;28;19964;-50
2022/03/21 09:56:48;;;;;;;;;;;11.50;81.80;;;;;;4193644;28;19935;-48
2022/03/21 09:58:50;;;;;;;;;;;12.00;81.60;;;;;;4193352;28;19980;-48
2022/03/21 10:00:52;;;;;;;;;;;12.00;77.80;;;;;;4193282;28;20398;-47
2022/03/21 10:02:56;;;;;;;;;;;12.00;77.20;;;;;;4191984;28;20430;-50
2022/03/21 10:04:58;;;;;;;;;;;11.50;78.50;;;;;;4193387;28;19924;-47
2022/03/21 10:07:00;;;;;;;;;;;11.30;75.10;;;;;;4193190;28;19933;-50
2022/03/21 10:09:22;;;;;;;;;;;11.50;74.60;;;;;;4193325;28;19932;-50
2022/03/21 10:11:24;;;;;;;;;;;11.90;76.10;;;;;;4179791;28;19935;-48
2022/03/21 10:13:36;;;;;;;;;;;12.10;74.70;;;;;;4193078;28;20554;-50
2022/03/21 10:15:38;;;;;;;;;;;11.60;69.20;;;;;;4191875;28;20323;-48
2022/03/21 10:17:40;;;;;;;;;;;11.10;70.80;;;;;;4193168;28;19928;-49
2022/03/21 10:19:42;;;;;;;;;;;11.00;71.60;;;;;;4192931;28;19928;-47
2022/03/21 10:21:59;;;;;;;;;;;11.00;69.90;;;;;;4192935;28;19928;-47
2022/03/21 10:24:08;;;;;;;;;;;11.30;73.20;;;;;;4193409;28;20462;-50
2022/03/21 10:26:24;;;;;;;;;;;11.20;68.50;;;;;;4193198;28;19964;-47
2022/03/21 10:28:37;;;;;;;;;;;11.00;72.00;;;;;;4192932;28;19928;-47
2022/03/21 10:30:44;;;;;;;;;;;11.30;74.50;;;;;;4193591;28;19936;-48
2022/03/21 10:32:56;;;;;;;;;;;11.10;70.70;;;;;;4192856;28;20328;-50
2022/03/21 10:34:59;;;;;;;;;;;11.10;71.70;;;;;;4193260;28;19978;-49
2022/03/21 10:37:04;;;;;;;;;;;11.00;67.60;;;;;;4192870;28;19971;-48
2022/03/21 10:39:07;;;;;;;;;;;11.00;69.80;;;;;;4192872;28;19970;-48
2022/03/21 10:41:09;;;;;;;;;;;11.30;69.70;;;;;;4193214;28;19924;-48
2022/03/21 10:43:13;;;;;;;;;;;11.70;70.60;;;;;;4193306;28;19939;-49
2022/03/21 10:45:15;;;;;;;;;;;11.70;67.60;;;;;;4193215;28;19936;-48
2022/03/21 10:47:17;;;;;;;;;;;11.70;69.30;;;;;;4193039;28;19964;-48
2022/03/21 10:49:27;;;;;;;;;;;11.60;69.00;;;;;;4192923;28;19925;-50
2022/03/21 10:51:45;;;;;;;;;;;11.80;68.90;;;;;;4192882;28;19924;-49
2022/03/21 10:53:47;;;;;;;;;;;11.90;65.80;;;;;;4193670;28;19925;-51
2022/03/21 10:55:58;;;;;;;;;;;12.60;69.40;;;;;;4193595;28;19968;-50
2022/03/21 10:58:00;;;;;;;;;;;12.20;65.50;;;;;;4195815;28;19947;-51
2022/03/21 11:00:12;;;;;;;;;;;12.10;64.60;;;;;;4196058;28;19929;-49
2022/03/21 11:02:15;;;;;;;;;;;11.70;64.80;;;;;;4196044;28;19928;-51
2022/03/21 11:04:17;;;;;;;;;;;12.00;66.70;;;;;;4196149;28;20027;-49
2022/03/21 11:06:19;;;;;;;;;;;12.50;69.30;;;;;;4196196;28;19924;-49
2022/03/21 11:08:21;;;;;;;;;;;12.30;64.60;;;;;;4192938;28;20419;-49
2022/03/21 11:10:24;;;;;;;;;;;12.10;67.20;;;;;;4193508;28;19936;-48
2022/03/21 11:12:26;;;;;;;;;;;12.10;64.50;;;;;;4191228;28;19928;-48
2022/03/21 11:14:31;;;;;;;;;;;12.40;63.00;;;;;;4191040;28;19932;-48
2022/03/21 11:16:34;;;;;;;;;;;12.60;68.30;;;;;;4190143;28;19928;-48
2022/03/21 11:18:39;;;;;;;;;;;12.50;66.30;;;;;;4194592;28;19932;-47
2022/03/21 11:20:42;;;;;;;;;;;12.80;65.80;;;;;;4191221;28;19998;-47
2022/03/21 11:22:44;;;;;;;;;;;12.60;60.50;;;;;;4190628;28;19932;-50
2022/03/21 11:24:45;;;;;;;;;;;12.90;66.00;;;;;;4198864;28;19928;-49
2022/03/21 11:26:54;;;;;;;;;;;13.10;61.30;;;;;;4186403;28;19928;-48
2022/03/21 11:29:16;;;;;;;;;;;13.40;65.90;;;;;;4199487;28;20422;-47
2022/03/21 11:31:23;;;;;;;;;;;13.40;63.20;;;;;;4191211;28;19932;-47
2022/03/21 11:33:46;;;;;;;;;;;13.30;63.80;;;;;;4192402;28;19924;-49
2022/03/21 11:35:58;;;;;;;;;;;13.50;65.80;;;;;;4193182;28;19951;-50
2022/03/21 11:38:18;;;;;;;;;;;13.60;63.40;;;;;;4193481;28;19934;-49
2022/03/21 11:40:23;;;;;;;;;;;13.60;64.20;;;;;;4194487;28;19932;-51
2022/03/21 11:42:26;;;;;;;;;;;13.70;61.40;;;;;;4196201;28;19931;-50
2022/03/21 11:44:28;;;;;;;;;;;13.50;65.60;;;;;;4193849;28;19928;-50
2022/03/21 11:46:31;;;;;;;;;;;13.90;63.10;;;;;;4192510;28;20678;-48
2022/03/21 11:48:33;;;;;;;;;;;14.00;64.90;;;;;;4191423;28;19925;-50
2022/03/21 11:50:35;;;;;;;;;;;13.60;59.20;;;;;;4175742;28;20404;-51
2022/03/21 11:52:55;;;;;;;;;;;13.70;62.60;;;;;;4190033;28;20110;-51
2022/03/21 11:54:58;;;;;;;;;;;13.70;60.80;;;;;;4189379;28;20409;-48
2022/03/21 11:57:00;;;;;;;;;;;14.10;63.80;;;;;;4189456;28;19933;-48
2022/03/21 11:59:03;;;;;;;;;;;14.00;62.80;;;;;;4199538;28;19931;-50
2022/03/21 12:01:04;;;;;;;;;;;13.60;59.10;;;;;;4203136;28;19975;-50
2022/03/21 12:03:06;;;;;;;;;;;13.60;61.00;;;;;;4195243;28;19954;-49
2022/03/21 12:05:09;;;;;;;;;;;14.60;66.10;;;;;;4196332;28;20383;-50
2022/03/21 12:07:11;;;;;;;;;;;15.10;63.50;;;;;;4205743;28;20285;-50
2022/03/21 12:09:13;;;;;;;;;;;15.20;65.40;;;;;;4207934;28;19928;-51
2022/03/21 12:11:36;;;;;;;;;;;15.40;63.10;;;;;;4189740;28;19943;-48
2022/03/21 12:13:40;;;;;;;;;;;15.30;63.00;;;;;;4191758;28;19936;-48
2022/03/21 12:15:50;;;;;;;;;;;14.70;61.00;;;;;;4194846;28;19925;-50
2022/03/21 12:17:52;;;;;;;;;;;15.00;60.80;;;;;;4194039;28;20377;-48
2022/03/21 12:19:58;;;;;;;;;;;14.80;59.70;;;;;;4194322;28;19932;-50